Time;durP1;ratioP1;P1;durP2;ratioP2;P2;SDS_P1;SDS_P2;PMS_P1;PMS_P2;Temp;Humidity;BMP_temperature;BMP_pressure;BME280_temperature;BME280_humidity;BME280_pressure;Samples;Min_cycle;Max_cycle;Signal;HPM_P1;HPM_P2
2022/05/29 00:01:59;;;;;;;13.63;2.20;;;;;;;7.56;65.15;100670.84;5035600;28;20050;-70
2022/05/29 00:04:25;;;;;;;13.10;2.65;;;;;;;7.60;65.22;100666.06;5035775;28;20049;-70
2022/05/29 00:06:55;;;;;;;11.57;2.40;;;;;;;7.59;65.30;100661.72;5035395;28;20057;-69
2022/05/29 00:09:35;;;;;;;12.18;2.88;;;;;;;7.56;65.44;100662.84;5035540;28;20081;-70
2022/05/29 00:12:03;;;;;;;18.27;3.28;;;;;;;7.55;65.57;100658.50;5035450;28;20501;-70
2022/05/29 00:14:30;;;;;;;11.98;2.00;;;;;;;7.52;65.81;100650.78;5035414;28;20136;-70
2022/05/29 00:16:57;;;;;;;14.82;2.58;;;;;;;7.56;65.65;100660.19;5035272;28;20472;-70
2022/05/29 00:19:24;;;;;;;8.55;2.45;;;;;;;7.59;65.21;100657.22;5035432;28;20059;-71
2022/05/29 00:21:51;;;;;;;16.83;2.55;;;;;;;7.57;65.17;100650.34;5034701;28;20145;-70
2022/05/29 00:24:18;;;;;;;11.65;1.92;;;;;;;7.61;64.66;100649.94;5037169;28;20084;-70
2022/05/29 00:26:44;;;;;;;13.57;2.30;;;;;;;7.67;64.46;100643.16;5035124;28;20051;-70
2022/05/29 00:29:10;;;;;;;11.23;2.25;;;;;;;7.61;63.30;100641.91;5035406;28;20072;-70
2022/05/29 00:31:37;;;;;;;16.33;2.13;;;;;;;7.72;62.79;100645.41;5036444;28;20119;-69
2022/05/29 00:34:03;;;;;;;17.27;2.40;;;;;;;7.76;61.76;100639.63;5035004;28;20446;-69
2022/05/29 00:36:34;;;;;;;13.38;2.00;;;;;;;7.65;62.00;100642.47;5035074;28;20084;-70
2022/05/29 00:39:01;;;;;;;13.40;2.65;;;;;;;7.69;62.67;100641.19;5034539;28;20124;-71
2022/05/29 00:41:31;;;;;;;10.70;2.10;;;;;;;7.76;62.16;100639.63;5036133;28;20508;-71
2022/05/29 00:44:16;;;;;;;12.95;2.60;;;;;;;7.64;61.73;100635.47;5035338;28;20045;-71
2022/05/29 00:46:46;;;;;;;17.63;3.05;;;;;;;7.69;61.22;100632.34;5035977;28;20049;-71
2022/05/29 00:49:14;;;;;;;11.68;2.42;;;;;;;7.65;61.80;100637.13;5035115;28;20089;-70
2022/05/29 00:52:06;;;;;;;12.30;2.28;;;;;;;7.73;61.85;100625.72;5034730;28;20144;-70
2022/05/29 00:54:42;;;;;;;8.48;1.98;;;;;;;7.75;61.42;100623.78;5034706;28;20132;-71
2022/05/29 00:57:12;;;;;;;13.85;2.30;;;;;;;7.75;61.40;100626.44;5034626;28;20053;-70
2022/05/29 00:59:39;;;;;;;10.07;2.20;;;;;;;7.84;61.49;100622.91;5035465;28;20057;-70
2022/05/29 01:02:05;;;;;;;13.30;2.33;;;;;;;7.83;61.31;100616.69;5034812;28;20139;-70
2022/05/29 01:04:34;;;;;;;13.88;2.40;;;;;;;7.73;61.61;100617.72;5034465;28;20099;-70
2022/05/29 01:07:24;;;;;;;16.40;2.05;;;;;;;7.77;61.65;100621.78;5034402;28;20073;-71
2022/05/29 01:09:51;;;;;;;11.02;2.15;;;;;;;7.78;61.39;100618.16;5034909;28;20053;-70
2022/05/29 01:12:25;;;;;;;12.80;2.03;;;;;;;7.71;61.50;100620.53;5034441;28;20141;-71
2022/05/29 01:15:02;;;;;;;14.20;2.22;;;;;;;7.67;61.69;100613.78;5034991;28;20485;-70
2022/05/29 01:17:47;;;;;;;11.85;2.05;;;;;;;7.76;61.85;100615.59;5034539;28;20140;-70
2022/05/29 01:20:20;;;;;;;16.40;2.42;;;;;;;7.70;61.62;100612.66;5033565;28;20049;-69
2022/05/29 01:23:15;;;;;;;11.38;2.10;;;;;;;7.70;61.96;100610.00;5034664;28;20089;-71
2022/05/29 01:26:24;;;;;;;15.00;2.38;;;;;;;7.64;62.55;100612.28;5034288;28;20077;-71
2022/05/29 01:29:03;;;;;;;11.55;2.15;;;;;;;7.64;62.84;100609.59;5034527;28;20065;-71
2022/05/29 01:31:42;;;;;;;9.85;2.20;;;;;;;7.59;62.68;100609.16;5034316;28;20128;-71
2022/05/29 01:34:35;;;;;;;17.05;2.58;;;;;;;7.61;63.11;100604.53;5034350;28;20135;-71
2022/05/29 01:37:09;;;;;;;9.70;2.28;;;;;;;7.61;63.39;100606.38;5034204;28;20046;-71
2022/05/29 01:39:44;;;;;;;15.75;2.60;;;;;;;7.61;63.51;100611.72;5034266;28;20140;-71
2022/05/29 01:42:21;;;;;;;11.80;2.22;;;;;;;7.54;63.87;100605.25;5034759;28;20145;-71
2022/05/29 01:44:58;;;;;;;9.80;1.80;;;;;;;7.53;63.59;100604.41;5034383;28;20132;-71
2022/05/29 01:47:31;;;;;;;9.43;2.25;;;;;;;7.57;63.83;100605.81;5035069;28;20080;-71
2022/05/29 01:50:05;;;;;;;13.77;2.80;;;;;;;7.51;63.67;100602.88;5034067;28;20141;-71
2022/05/29 01:52:39;;;;;;;6.63;1.80;;;;;;;7.51;63.95;100601.03;5040126;28;20053;-71
2022/05/29 01:55:14;;;;;;;13.27;2.30;;;;;;;7.50;63.94;100603.84;5040342;28;20053;-71
2022/05/29 01:57:45;;;;;;;13.27;2.53;;;;;;;7.50;63.75;100599.38;5040308;28;20053;-71
2022/05/29 02:00:19;;;;;;;10.63;2.28;;;;;;;7.48;64.23;100606.66;5040287;28;20132;-71
2022/05/29 02:03:34;;;;;;;16.23;2.15;;;;;;;7.44;64.54;100597.28;5040244;28;20053;-71
2022/05/29 02:06:09;;;;;;;10.82;2.65;;;;;;;7.42;64.17;100597.41;5024046;28;20085;-71
2022/05/29 02:08:58;;;;;;;12.07;2.53;;;;;;;7.45;64.42;100600.78;5040043;28;20140;-71
2022/05/29 02:11:28;;;;;;;11.98;2.40;;;;;;;7.46;64.45;100599.78;5039865;28;20140;-71
2022/05/29 02:14:02;;;;;;;14.32;2.50;;;;;;;7.47;63.96;100605.00;5039726;28;20141;-70
2022/05/29 02:16:34;;;;;;;13.90;3.10;;;;;;;7.44;64.03;100597.28;5040077;28;20099;-69
2022/05/29 02:19:15;;;;;;;10.40;2.03;;;;;;;7.41;64.58;100595.72;5039949;28;20496;-71
2022/05/29 02:21:46;;;;;;;14.27;2.65;;;;;;;7.43;64.21;100592.94;5040563;28;20061;-70
2022/05/29 02:24:17;;;;;;;12.88;2.50;;;;;;;7.36;64.54;100589.13;5039659;28;20053;-72
2022/05/29 02:26:50;;;;;;;15.48;2.75;;;;;;;7.33;64.41;100602.78;5039968;28;20533;-71
2022/05/29 02:29:17;;;;;;;11.80;2.53;;;;;;;7.35;64.68;100584.78;5040085;28;20081;-70
2022/05/29 02:31:52;;;;;;;7.18;2.00;;;;;;;7.32;64.61;100587.72;5040649;28;20131;-70
2022/05/29 02:34:34;;;;;;;10.00;1.98;;;;;;;7.34;65.09;100585.75;5040069;28;20095;-70
2022/05/29 02:37:29;;;;;;;11.93;2.38;;;;;;;7.30;64.82;100587.88;5040629;28;20053;-71
2022/05/29 02:40:14;;;;;;;16.63;2.60;;;;;;;7.27;64.59;100587.31;5039677;28;20156;-71
2022/05/29 02:43:05;;;;;;;12.80;2.60;;;;;;;7.25;64.53;100582.09;5039551;28;20045;-70
2022/05/29 02:45:40;;;;;;;9.75;1.90;;;;;;;7.27;64.20;100577.47;5039780;28;20115;-70
2022/05/29 02:48:47;;;;;;;7.53;2.00;;;;;;;7.24;64.57;100587.59;5039745;28;20055;-71
2022/05/29 02:51:24;;;;;;;10.30;2.45;;;;;;;7.28;64.52;100583.66;5038524;28;20480;-71
2022/05/29 02:53:50;;;;;;;9.82;1.92;;;;;;;7.22;64.56;100586.88;5040038;28;20493;-71
2022/05/29 02:56:17;;;;;;;12.80;2.72;;;;;;;7.26;64.54;100588.31;5039433;28;20239;-71
2022/05/29 02:58:48;;;;;;;12.98;2.42;;;;;;;7.22;64.52;100584.22;5039674;28;20140;-71
2022/05/29 03:01:37;;;;;;;9.65;2.70;;;;;;;7.21;64.67;100586.03;5040259;28;20133;-71
2022/05/29 03:04:33;;;;;;;11.63;2.05;;;;;;;7.28;64.73;100581.81;5036733;28;20049;-71
2022/05/29 03:07:18;;;;;;;12.45;2.63;;;;;;;7.20;64.84;100581.69;5037019;28;20128;-71
2022/05/29 03:10:25;;;;;;;11.55;2.03;;;;;;;7.17;64.71;100581.97;5036652;28;20080;-69
2022/05/29 03:13:02;;;;;;;9.20;2.50;;;;;;;7.15;64.94;100578.59;5036610;28;20100;-71
2022/05/29 03:15:51;;;;;;;11.15;2.58;;;;;;;7.16;64.83;100583.81;5036476;28;20165;-71
2022/05/29 03:18:55;;;;;;;7.57;2.28;;;;;;;7.16;65.06;100577.63;5036578;28;20553;-71
2022/05/29 03:21:28;;;;;;;13.45;2.45;;;;;;;7.19;64.85;100572.88;5036267;28;20136;-70
2022/05/29 03:24:14;;;;;;;16.30;2.50;;;;;;;7.18;65.37;100584.50;5035776;28;20136;-69
2022/05/29 03:26:49;;;;;;;15.90;3.00;;;;;;;7.16;64.98;100588.31;5036102;28;20104;-71
2022/05/29 03:29:35;;;;;;;10.88;2.20;;;;;;;7.16;65.38;100583.81;5036138;28;20049;-71
2022/05/29 03:32:03;;;;;;;8.65;2.35;;;;;;;7.15;65.31;100584.81;5035980;28;20085;-71
2022/05/29 03:34:29;;;;;;;18.30;2.53;;;;;;;7.20;65.24;100589.72;5035970;28;20072;-69
2022/05/29 03:36:56;;;;;;;11.43;2.63;;;;;;;7.21;65.21;100585.22;5036088;28;20468;-70
2022/05/29 03:39:22;;;;;;;7.85;2.45;;;;;;;7.19;65.20;100585.38;5035777;28;20055;-71
2022/05/29 03:41:52;;;;;;;14.77;3.08;;;;;;;7.21;65.54;100579.88;5035725;28;20424;-71
2022/05/29 03:44:21;;;;;;;11.98;1.95;;;;;;;7.22;65.44;100582.38;5036357;28;20470;-69
2022/05/29 03:46:47;;;;;;;15.82;2.45;;;;;;;7.27;65.33;100581.97;5035809;28;20111;-69
2022/05/29 03:49:17;;;;;;;10.32;2.42;;;;;;;7.33;65.64;100582.25;5035962;28;20067;-70
2022/05/29 03:51:44;;;;;;;18.13;2.90;;;;;;;7.37;65.32;100580.16;5035779;28;20148;-71
2022/05/29 03:54:11;;;;;;;14.05;2.45;;;;;;;7.34;65.46;100583.09;5035946;28;20080;-70
2022/05/29 03:56:37;;;;;;;11.55;2.45;;;;;;;7.53;65.59;100584.88;5035664;28;20088;-71
2022/05/29 03:59:04;;;;;;;10.25;2.47;;;;;;;7.45;65.28;100574.91;5035649;28;20140;-71
2022/05/29 04:01:32;;;;;;;9.80;2.15;;;;;;;7.35;65.63;100584.78;5035615;28;20515;-71
2022/05/29 04:03:59;;;;;;;11.98;2.75;;;;;;;8.13;64.65;100572.06;5035247;28;20045;-70
2022/05/29 04:06:27;;;;;;;17.58;2.85;;;;;;;7.59;64.69;100576.28;5035669;28;20397;-71
2022/05/29 04:14:28;;;;;;;15.30;2.83;;;;;;;7.73;64.53;100565.16;5034710;28;20108;-71
2022/05/29 04:16:54;;;;;;;15.40;2.60;;;;;;;7.68;64.88;100574.59;5034751;28;20136;-70
2022/05/29 04:19:21;;;;;;;9.57;2.40;;;;;;;7.58;65.06;100572.78;5035239;28;20163;-71
2022/05/29 04:21:49;;;;;;;11.40;3.15;;;;;;;7.93;64.49;100568.63;5035052;28;20076;-71
2022/05/29 04:24:16;;;;;;;10.20;2.90;;;;;;;8.08;63.56;100574.31;5034796;28;20474;-70
2022/05/29 04:26:43;;;;;;;12.85;2.50;;;;;;;8.10;63.64;100577.69;5035104;28;20460;-70
2022/05/29 04:29:09;;;;;;;12.38;2.97;;;;;;;8.03;63.60;100574.78;5035045;28;20140;-71
2022/05/29 04:31:36;;;;;;;11.85;2.55;;;;;;;7.97;64.20;100569.19;5034707;28;20045;-72
2022/05/29 04:34:02;;;;;;;8.27;1.92;;;;;;;8.32;63.70;100576.47;5034545;28;20060;-71
2022/05/29 04:36:29;;;;;;;11.18;2.95;;;;;;;8.34;63.15;100575.31;5034930;28;20136;-71
2022/05/29 04:38:55;;;;;;;14.27;3.10;;;;;;;8.05;63.83;100571.94;5034955;28;20049;-70
2022/05/29 04:41:25;;;;;;;7.63;2.08;;;;;;;7.99;64.13;100568.06;5034441;28;20080;-70
2022/05/29 04:43:55;;;;;;;11.50;2.92;;;;;;;7.96;64.72;100567.50;5034699;28;20551;-70
2022/05/29 04:46:21;;;;;;;15.07;2.38;;;;;;;8.12;63.85;100563.22;5034348;28;20045;-71
2022/05/29 04:48:48;;;;;;;15.23;2.72;;;;;;;8.14;64.31;100566.56;5034779;28;20099;-72
2022/05/29 04:51:15;;;;;;;16.80;4.28;;;;;;;8.18;64.21;100558.25;5034729;28;20496;-71
2022/05/29 04:53:41;;;;;;;12.45;2.60;;;;;;;8.40;63.71;100563.22;5034399;28;20136;-71
2022/05/29 04:56:09;;;;;;;12.90;3.50;;;;;;;8.54;62.67;100568.03;5034366;28;20055;-70
2022/05/29 04:58:36;;;;;;;21.15;2.85;;;;;;;8.30;62.95;100559.75;5034429;28;20053;-72
2022/05/29 05:01:04;;;;;;;16.67;2.90;;;;;;;8.13;63.96;100570.22;5034478;28;20132;-71
2022/05/29 05:03:31;;;;;;;11.02;2.70;;;;;;;8.11;64.12;100572.19;5034335;28;20224;-71
2022/05/29 05:05:58;;;;;;;10.90;2.88;;;;;;;8.16;63.87;100573.56;5034665;28;20416;-72
2022/05/29 05:08:25;;;;;;;10.85;2.70;;;;;;;8.29;63.30;100569.56;5034847;28;20128;-72
2022/05/29 05:10:51;;;;;;;13.98;2.38;;;;;;;8.16;63.91;100568.22;5034384;28;20481;-72
2022/05/29 05:13:18;;;;;;;10.27;2.22;;;;;;;8.30;63.37;100570.44;5033863;28;20059;-72
2022/05/29 05:15:44;;;;;;;12.18;3.00;;;;;;;8.21;63.58;100564.13;5034032;28;20468;-72
2022/05/29 05:18:11;;;;;;;11.27;3.25;;;;;;;8.16;64.04;100569.09;5033975;28;20456;-72
2022/05/29 05:20:38;;;;;;;15.18;2.65;;;;;;;8.25;63.86;100567.34;5034047;28;20454;-72
2022/05/29 05:23:05;;;;;;;14.07;2.22;;;;;;;8.19;63.90;100565.28;5034234;28;20524;-72
2022/05/29 05:25:33;;;;;;;11.98;2.90;;;;;;;8.12;64.48;100563.22;5033609;28;20140;-72
2022/05/29 05:27:59;;;;;;;14.27;3.28;;;;;;;8.16;64.50;100563.75;5033884;28;20051;-72
2022/05/29 05:30:26;;;;;;;10.48;2.28;;;;;;;8.21;64.18;100565.97;5033859;28;20184;-72
2022/05/29 05:32:52;;;;;;;11.38;3.22;;;;;;;8.12;64.55;100563.22;5034110;28;20136;-71
2022/05/29 05:35:19;;;;;;;18.15;2.85;;;;;;;8.12;64.76;100565.03;5034064;28;20080;-71
2022/05/29 05:37:45;;;;;;;16.60;2.63;;;;;;;8.27;64.49;100560.88;5033904;28;20045;-72
2022/05/29 05:40:14;;;;;;;12.05;2.80;;;;;;;8.22;64.60;100562.31;5016400;28;20083;-71
2022/05/29 05:42:41;;;;;;;20.92;3.08;;;;;;;8.21;64.71;100568.66;5033928;28;20418;-71
2022/05/29 05:45:10;;;;;;;12.05;2.90;;;;;;;8.26;64.36;100566.34;5033559;28;20053;-71
2022/05/29 05:47:37;;;;;;;14.68;2.83;;;;;;;8.27;64.86;100560.88;5033658;28;20115;-71
2022/05/29 05:50:05;;;;;;;17.35;3.30;;;;;;;8.31;64.78;100566.75;5033482;28;20144;-71
2022/05/29 05:52:31;;;;;;;17.77;2.85;;;;;;;8.44;64.26;100571.78;5033695;28;20100;-72
2022/05/29 05:54:58;;;;;;;14.98;2.95;;;;;;;8.54;64.04;100569.88;5034106;28;20080;-72
2022/05/29 05:57:24;;;;;;;14.20;2.92;;;;;;;8.65;63.74;100563.47;5033853;28;20145;-72
2022/05/29 05:59:51;;;;;;;13.70;2.55;;;;;;;8.79;63.26;100561.09;5034122;28;20493;-72
2022/05/29 06:02:17;;;;;;;10.20;2.50;;;;;;;8.83;63.07;100566.97;5016510;28;20482;-72
2022/05/29 06:04:44;;;;;;;16.75;3.17;;;;;;;8.89;63.07;100571.72;5033956;28;20049;-72
2022/05/29 06:07:10;;;;;;;13.73;2.78;;;;;;;8.97;62.52;100576.31;5016050;28;20053;-70
2022/05/29 06:09:37;;;;;;;6.40;1.98;;;;;;;8.83;62.75;100573.16;5033669;28;20045;-71
2022/05/29 06:12:06;;;;;;;16.60;3.58;;;;;;;8.87;62.75;100570.19;5034031;28;20140;-72
2022/05/29 06:14:34;;;;;;;9.70;2.80;;;;;;;9.04;62.09;100564.00;5034369;28;20136;-70
2022/05/29 06:17:05;;;;;;;13.30;3.03;;;;;;;9.02;61.76;100566.84;5033391;28;20145;-71
2022/05/29 06:19:32;;;;;;;18.45;2.72;;;;;;;9.19;61.56;100566.94;5033393;28;20075;-70
2022/05/29 06:21:58;;;;;;;14.65;2.88;;;;;;;9.18;61.43;100570.63;5033246;28;20509;-72
2022/05/29 06:24:25;;;;;;;13.15;3.33;;;;;;;9.26;61.19;100568.03;5032806;28;20152;-70
2022/05/29 06:26:56;;;;;;;16.38;3.42;;;;;;;9.18;61.18;100578.66;5033202;28;20065;-70
2022/05/29 06:29:22;;;;;;;14.32;2.90;;;;;;;9.14;61.22;100569.28;5033704;28;20492;-70
2022/05/29 06:31:49;;;;;;;11.80;2.80;;;;;;;9.15;61.04;100570.94;5033183;28;20053;-71
2022/05/29 06:34:15;;;;;;;12.15;2.90;;;;;;;9.17;61.66;100569.78;5033357;28;20476;-71
2022/05/29 06:36:42;;;;;;;8.88;2.83;;;;;;;9.25;61.30;100574.41;5033121;28;20053;-71
2022/05/29 06:39:08;;;;;;;10.30;2.47;;;;;;;9.38;61.05;100571.34;5036882;28;20053;-72
2022/05/29 06:41:39;;;;;;;9.55;2.75;;;;;;;9.35;61.19;100567.13;5036979;28;20464;-71
2022/05/29 06:44:06;;;;;;;10.15;2.35;;;;;;;9.37;60.85;100570.50;5036819;28;20045;-71
2022/05/29 06:46:32;;;;;;;9.73;2.90;;;;;;;9.50;60.40;100576.25;5036879;28;20076;-71
2022/05/29 06:48:59;;;;;;;16.05;3.55;;;;;;;9.49;60.47;100579.09;5036915;28;20053;-71
2022/05/29 06:51:26;;;;;;;11.50;2.53;;;;;;;9.65;60.14;100576.53;5037168;28;20088;-72
2022/05/29 06:53:56;;;;;;;14.90;2.70;;;;;;;9.78;59.71;100578.78;5036915;28;20129;-71
2022/05/29 06:56:24;;;;;;;12.27;2.85;;;;;;;9.64;59.34;100565.97;5036960;28;20073;-70
2022/05/29 06:58:50;;;;;;;6.78;2.60;;;;;;;9.58;59.19;100575.50;5036840;28;20111;-70
2022/05/29 07:07:14;;;;;;;9.48;2.28;;;;;;;10.39;56.21;100575.03;5037072;28;20481;-71
2022/05/29 07:09:41;;;;;;;9.77;2.78;;;;;;;10.65;55.00;100574.13;5036365;28;20067;-70
2022/05/29 07:12:27;;;;;;;6.90;2.13;;;;;;;10.93;53.92;100577.41;5036049;28;20104;-69
2022/05/29 07:15:03;;;;;;;16.50;2.80;;;;;;;11.14;53.46;100576.91;5036637;28;20128;-72
2022/05/29 07:17:29;;;;;;;12.00;2.72;;;;;;;11.19;52.44;100575.38;5036376;28;20435;-72
2022/05/29 07:19:56;;;;;;;10.70;2.28;;;;;;;11.33;52.76;100570.34;5036072;28;20104;-70
2022/05/29 07:22:22;;;;;;;9.35;2.30;;;;;;;11.41;52.08;100573.88;5036454;28;20441;-71
2022/05/29 07:24:49;;;;;;;8.73;2.00;;;;;;;11.27;52.06;100571.84;5036259;28;20077;-70
2022/05/29 07:27:15;;;;;;;8.25;2.05;;;;;;;11.04;52.79;100570.84;5036384;28;20045;-70
2022/05/29 07:29:42;;;;;;;8.27;2.67;;;;;;;10.90;52.98;100575.03;5036590;28;20083;-70
2022/05/29 07:32:10;;;;;;;13.02;2.83;;;;;;;10.57;53.60;100577.63;5036317;28;20057;-69
2022/05/29 07:34:36;;;;;;;14.38;2.92;;;;;;;10.44;54.36;100586.13;5036184;28;20144;-71
2022/05/29 07:37:06;;;;;;;8.68;2.30;;;;;;;10.23;54.99;100583.03;5035866;28;20137;-71
2022/05/29 07:39:42;;;;;;;10.48;1.85;;;;;;;10.10;55.57;100582.63;5036557;28;20486;-71
2022/05/29 07:44:55;;;;;;;13.07;2.05;;;;;;;9.88;56.84;100573.31;5036071;28;20076;-70
2022/05/29 07:47:23;;;;;;;8.93;2.53;;;;;;;9.80;57.73;100582.16;5018304;28;20456;-70
2022/05/29 07:49:51;;;;;;;10.50;2.05;;;;;;;9.87;58.04;100577.84;5035170;28;20132;-71
2022/05/29 07:52:17;;;;;;;10.95;2.70;;;;;;;9.97;57.30;100585.75;5036071;28;20049;-74
2022/05/29 07:54:44;;;;;;;8.27;2.25;;;;;;;10.12;57.50;100577.94;5035537;28;20144;-71
2022/05/29 07:57:10;;;;;;;8.55;2.50;;;;;;;10.27;56.58;100585.25;5035787;28;20059;-71
2022/05/29 07:59:36;;;;;;;15.02;2.45;;;;;;;10.21;56.70;100587.72;5035504;28;20463;-71
2022/05/29 08:02:07;;;;;;;9.43;2.38;;;;;;;10.28;56.82;100583.38;5035439;28;20080;-70
2022/05/29 08:04:35;;;;;;;11.98;2.47;;;;;;;10.25;56.52;100592.59;5035274;28;20057;-71
2022/05/29 08:07:02;;;;;;;10.02;2.50;;;;;;;10.21;56.53;100585.88;5017917;28;20050;-70
2022/05/29 08:09:28;;;;;;;8.40;2.53;;;;;;;9.98;57.00;100590.13;5035455;28;20133;-71
2022/05/29 08:11:55;;;;;;;7.53;1.98;;;;;;;10.02;56.01;100589.63;5035704;28;20097;-71
2022/05/29 08:14:21;;;;;;;11.25;2.60;;;;;;;9.91;56.73;100587.22;5035327;28;20137;-70
2022/05/29 08:16:48;;;;;;;11.23;2.63;;;;;;;9.80;57.78;100593.69;5035696;28;20139;-70
2022/05/29 08:19:14;;;;;;;7.72;2.20;;;;;;;9.84;57.87;100583.50;5035281;28;20454;-70
2022/05/29 08:21:43;;;;;;;7.88;2.15;;;;;;;9.81;57.43;100589.19;5035093;28;20454;-70
2022/05/29 08:32:58;;;;;;;8.38;2.20;;;;;;;9.65;57.42;100581.91;5034945;28;20049;-71
2022/05/29 08:35:24;;;;;;;10.50;2.38;;;;;;;10.08;55.94;100579.28;5034583;28;20140;-72
2022/05/29 08:37:51;;;;;;;7.63;1.80;;;;;;;10.21;54.71;100577.84;5035521;28;20136;-71
2022/05/29 08:40:17;;;;;;;8.07;1.98;;;;;;;10.60;54.14;100577.31;5035097;28;20462;-72
2022/05/29 08:42:44;;;;;;;7.78;2.20;;;;;;;10.98;52.72;100580.41;5034663;28;20144;-70
2022/05/29 08:45:15;;;;;;;11.10;3.03;;;;;;;11.37;52.35;100577.88;5035630;28;20157;-72
2022/05/29 08:47:45;;;;;;;9.77;1.75;;;;;;;11.03;52.55;100579.91;5035024;28;20041;-70
2022/05/29 08:50:20;;;;;;;8.70;1.98;;;;;;;11.33;51.50;100579.22;5034780;28;20085;-70
2022/05/29 08:52:53;;;;;;;9.25;1.77;;;;;;;11.37;50.97;100571.66;5035360;28;20412;-71
2022/05/29 08:55:28;;;;;;;7.35;1.80;;;;;;;11.69;50.45;100576.22;5034770;28;20084;-71
2022/05/29 08:58:05;;;;;;;11.32;2.15;;;;;;;12.24;49.33;100563.75;5034755;28;20132;-71
2022/05/29 09:00:47;;;;;;;7.00;2.00;;;;;;;12.07;49.79;100568.34;5034663;28;20084;-70
2022/05/29 09:03:28;;;;;;;9.02;1.70;;;;;;;11.64;50.74;100562.41;5034665;28;20046;-71
2022/05/29 09:06:00;;;;;;;6.38;2.20;;;;;;;11.38;49.92;100562.63;5034215;28;20056;-70
2022/05/29 09:08:49;;;;;;;5.22;1.85;;;;;;;11.39;50.16;100562.44;5033871;28;20081;-71
2022/05/29 09:11:21;;;;;;;10.80;1.70;;;;;;;11.26;50.48;100563.97;5034250;28;20049;-72
2022/05/29 09:13:50;;;;;;;;;;;;;;;11.20;49.97;100570.84;5034282;28;20136;-70
2022/05/29 09:16:20;;;;;;;6.70;1.67;;;;;;;11.04;50.88;100565.50;5034320;28;20017;-71
2022/05/29 09:18:56;;;;;;;6.47;1.57;;;;;;;11.07;50.63;100563.31;5033960;28;20045;-72
2022/05/29 09:21:47;;;;;;;6.88;1.77;;;;;;;11.21;50.61;100559.09;5034241;28;20049;-72
2022/05/29 09:24:39;;;;;;;6.15;1.80;;;;;;;10.90;51.04;100564.31;5039586;28;20394;-69
2022/05/29 09:27:09;;;;;;;8.52;2.10;;;;;;;10.67;51.64;100562.25;4998043;28;20045;-69
2022/05/29 09:29:36;;;;;;;6.65;2.00;;;;;;;10.57;51.97;100566.06;5035156;28;20099;-69
2022/05/29 09:32:08;;;;;;;10.02;2.20;;;;;;;10.29;53.63;100563.63;5035253;28;20056;-67
2022/05/29 09:34:34;;;;;;;5.40;1.83;;;;;;;9.96;53.87;100573.38;5035191;28;20442;-71
2022/05/29 09:37:11;;;;;;;6.70;1.55;;;;;;;10.00;54.18;100562.16;5034725;28;20536;-68
2022/05/29 09:39:47;;;;;;;6.78;1.98;;;;;;;9.79;54.97;100564.41;5034672;28;20049;-70
2022/05/29 09:42:36;;;;;;;6.97;1.77;;;;;;;9.78;55.44;100557.34;5034239;28;20140;-68
2022/05/29 09:45:22;;;;;;;6.97;1.85;;;;;;;9.94;54.75;100562.78;5034647;28;20072;-69
2022/05/29 09:50:44;;;;;;;6.22;1.63;;;;;;;9.94;53.11;100560.13;5034005;28;20085;-69
2022/05/29 09:53:15;;;;;;;5.90;1.40;;;;;;;10.43;52.86;100567.50;5034389;28;20077;-69
2022/05/29 09:56:04;;;;;;;6.20;1.85;;;;;;;10.73;52.49;100560.75;5035253;28;20085;-69
2022/05/29 09:58:50;;;;;;;6.93;1.88;;;;;;;10.74;54.18;100565.94;5034129;28;20136;-69
2022/05/29 10:01:34;;;;;;;16.10;3.17;;;;;;;10.55;55.91;100560.88;5034563;28;20100;-70
2022/05/29 10:04:04;;;;;;;7.25;1.92;;;;;;;10.22;55.37;100559.91;5017793;28;20045;-70
2022/05/29 10:06:43;;;;;;;7.20;1.83;;;;;;;10.32;54.77;100559.78;5035181;28;20132;-69
2022/05/29 10:09:12;;;;;;;7.90;1.90;;;;;;;10.26;54.50;100566.63;5035277;28;20441;-70
2022/05/29 10:11:39;;;;;;;6.30;1.65;;;;;;;10.25;54.28;100565.78;5035718;28;20525;-69
2022/05/29 10:14:20;;;;;;;5.13;1.10;;;;;;;10.29;53.03;100566.28;5038391;28;20081;-69
2022/05/29 10:16:49;;;;;;;8.18;1.27;;;;;;;10.22;53.63;100566.09;5038402;28;20069;-71
2022/05/29 10:19:36;;;;;;;5.20;1.42;;;;;;;10.07;54.61;100570.41;5020112;28;20048;-70
2022/05/29 10:22:16;;;;;;;6.90;1.42;;;;;;;10.28;54.87;100573.50;5037939;28;20053;-69
2022/05/29 10:24:43;;;;;;;3.88;1.58;;;;;;;10.21;55.55;100568.97;5037687;28;20487;-69
2022/05/29 10:27:19;;;;;;;6.45;2.25;;;;;;;9.94;58.28;100567.31;5038059;28;20073;-69
2022/05/29 10:29:53;;;;;;;8.45;3.83;;;;;;;9.69;59.64;100569.03;5039207;28;20504;-68
2022/05/29 10:32:23;;;;;;;8.32;2.55;;;;;;;9.44;61.14;100574.22;5038907;28;20050;-69
2022/05/29 10:34:50;;;;;;;8.35;2.03;;;;;;;9.62;62.25;100578.69;5038036;28;20140;-70
2022/05/29 10:37:35;;;;;;;7.30;1.98;;;;;;;9.64;61.29;100574.84;5038208;28;20081;-69
2022/05/29 10:40:22;;;;;;;7.20;1.77;;;;;;;9.65;63.06;100578.38;5038157;28;20091;-70
2022/05/29 10:43:01;;;;;;;7.93;2.30;;;;;;;9.64;63.45;100580.19;5037949;28;20477;-70
2022/05/29 10:45:32;;;;;;;6.53;1.83;;;;;;;9.68;63.43;100580.72;5037672;28;20137;-70
2022/05/29 10:48:25;;;;;;;11.52;2.33;;;;;;;9.85;63.40;100577.13;5037681;28;20400;-70
2022/05/29 10:51:20;;;;;;;8.02;2.03;;;;;;;9.86;62.49;100576.16;4992974;28;20085;-70
2022/05/29 10:54:17;;;;;;;5.85;2.22;;;;;;;9.95;62.73;100559.09;5037751;28;20093;-70
2022/05/29 10:57:13;;;;;;;5.30;2.03;;;;;;;9.98;62.02;100557.94;5037693;28;20103;-71
2022/05/29 10:59:58;;;;;;;7.55;1.85;;;;;;;9.94;60.32;100560.13;5037107;28;20050;-71
2022/05/29 11:05:45;;;;;;;4.40;1.20;;;;;;;10.59;56.38;100564.09;5037105;28;20092;-70
2022/05/29 11:08:26;;;;;;;3.63;0.77;;;;;;;11.15;54.17;100565.97;5037499;28;20136;-70
2022/05/29 11:11:01;;;;;;;3.85;1.60;;;;;;;11.57;52.54;100562.25;5037895;28;20095;-70
2022/05/29 11:13:59;;;;;;;6.75;1.45;;;;;;;12.30;52.15;100558.50;5036585;28;20144;-70
2022/05/29 11:16:41;;;;;;;10.48;2.92;;;;;;;12.41;49.59;100555.41;5036956;28;20133;-70
2022/05/29 11:19:32;;;;;;;10.27;4.32;;;;;;;13.13;48.52;100551.63;5036523;28;20053;-70
2022/05/29 11:22:14;;;;;;;11.77;3.30;;;;;;;13.08;47.73;100548.63;5036373;28;20053;-70
2022/05/29 11:24:54;;;;;;;9.73;2.65;;;;;;;12.69;47.86;100564.84;5035058;28;20148;-70
2022/05/29 11:27:49;;;;;;;9.80;2.72;;;;;;;12.25;49.24;100558.22;5036336;28;20089;-70
2022/05/29 11:30:38;;;;;;;11.70;2.67;;;;;;;11.79;51.44;100552.66;5036837;28;20144;-70
2022/05/29 11:33:37;;;;;;;7.40;2.67;;;;;;;11.88;52.60;100551.63;5036851;28;20056;-70
2022/05/29 11:36:42;;;;;;;6.55;1.80;;;;;;;11.97;54.05;100547.06;5036208;28;20148;-69
2022/05/29 11:39:32;;;;;;;13.75;2.33;;;;;;;11.96;56.77;100553.44;4955867;29;20061;-69
2022/05/29 11:42:10;;;;;;;7.82;2.35;;;;;;;11.83;57.26;100543.25;4955769;29;20110;-69
2022/05/29 11:44:46;;;;;;;9.98;2.55;;;;;;;12.03;56.17;100545.53;4955955;29;20149;-69
2022/05/29 11:53:16;;;;;;;5.82;2.08;;;;;;;12.14;51.21;100529.84;4955911;29;20055;-69
2022/05/29 11:55:47;;;;;;;10.95;2.10;;;;;;;12.36;50.79;100522.00;4956005;29;20138;-69
2022/05/29 11:58:23;;;;;;;4.65;1.33;;;;;;;12.54;49.76;100521.72;4955629;29;20059;-69
2022/05/29 12:00:59;;;;;;;4.60;1.60;;;;;;;12.39;50.54;100522.50;4955610;29;20137;-69
2022/05/29 12:03:31;;;;;;;4.90;1.45;;;;;;;11.82;49.62;100530.81;4955700;29;20055;-69
2022/05/29 12:06:05;;;;;;;3.78;1.33;;;;;;;12.09;48.96;100524.16;4955219;29;20146;-69
2022/05/29 12:08:49;;;;;;;3.88;1.52;;;;;;;12.60;48.92;100515.63;4955319;29;20054;-70
2022/05/29 12:11:25;;;;;;;3.78;1.50;;;;;;;12.55;48.40;100518.84;5035586;28;20136;-70
2022/05/29 12:14:02;;;;;;;3.47;0.98;;;;;;;12.39;49.65;100516.28;5035284;28;20082;-70
2022/05/29 12:16:31;;;;;;;4.53;1.55;;;;;;;12.73;49.73;100502.44;5036078;28;20144;-70
2022/05/29 12:19:01;;;;;;;6.13;1.40;;;;;;;12.82;48.53;100508.59;5034972;28;20055;-69
2022/05/29 12:21:45;;;;;;;9.57;3.33;;;;;;;12.19;49.62;100513.19;5017837;28;20049;-69
2022/05/29 12:24:17;;;;;;;5.35;1.70;;;;;;;12.16;50.22;100509.00;5035076;28;20053;-70
2022/05/29 12:26:50;;;;;;;9.30;2.38;;;;;;;11.60;52.71;100505.50;5035252;28;20099;-69
2022/05/29 12:29:34;;;;;;;4.43;2.08;;;;;;;11.86;52.17;100501.72;5035760;28;20385;-69
2022/05/29 12:32:06;;;;;;;7.72;1.50;;;;;;;11.18;52.10;100503.88;5035519;28;20049;-70